createdAt,value
2023-05-19T00:12:56.891Z,10.86
2023-05-19T00:40:47.967Z,10.10
2023-05-19T00:51:59.665Z,10.17
2023-05-19T00:57:10.315Z,10.20
2023-05-19T00:59:48.510Z,10.20
2023-05-19T01:33:31.120Z,9.95
2023-05-19T01:35:52.178Z,9.92
2023-05-19T01:41:05.122Z,9.75
2023-05-19T01:43:41.936Z,9.68
2023-05-19T01:46:11.080Z,9.62
2023-05-19T01:48:42.125Z,9.61
2023-05-19T01:51:09.900Z,9.60
2023-05-19T02:02:07.088Z,9.58
2023-05-19T02:04:40.525Z,9.57
2023-05-19T02:07:16.539Z,9.58
2023-05-19T02:23:58.547Z,9.59
2023-05-19T02:26:29.339Z,9.57
2023-05-19T02:40:11.754Z,9.55
2023-05-19T02:56:37.879Z,9.40
2023-05-19T02:59:37.223Z,9.38
2023-05-19T03:10:35.482Z,9.40
2023-05-19T03:21:28.587Z,9.41
2023-05-19T03:23:55.433Z,9.39
2023-05-19T03:26:26.955Z,9.33
2023-05-19T03:43:13.018Z,9.15
2023-05-19T04:11:18.161Z,8.64
2023-05-19T04:19:19.706Z,8.64
2023-05-19T04:21:46.356Z,8.71
2023-05-19T04:41:07.372Z,9.26
2023-05-19T04:54:58.672Z,9.66
2023-05-19T05:06:24.493Z,9.89
2023-05-19T05:13:15.068Z,9.98
2023-05-19T05:20:01.216Z,10.12
2023-05-19T05:22:27.674Z,10.25
2023-05-19T05:24:54.446Z,10.27
2023-05-19T05:27:21.011Z,10.30
2023-05-19T05:29:48.239Z,10.31
2023-05-19T05:32:14.621Z,10.32
2023-05-19T05:34:41.007Z,10.30
2023-05-19T05:37:07.423Z,10.35
2023-05-19T05:39:33.820Z,10.44
2023-05-19T05:42:02.201Z,10.44
2023-05-19T05:44:28.721Z,10.53
2023-05-19T05:46:56.112Z,10.63
2023-05-19T05:49:22.563Z,10.78
2023-05-19T05:52:01.830Z,10.90
2023-05-19T05:54:32.508Z,11.05
2023-05-19T05:57:00.044Z,11.23
2023-05-19T05:59:28.584Z,11.24
2023-05-19T06:01:55.018Z,11.45
2023-05-19T06:04:21.461Z,11.55
2023-05-19T06:06:48.226Z,11.63
2023-05-19T06:09:14.994Z,11.70
2023-05-19T06:11:41.665Z,11.73
2023-05-19T06:14:08.108Z,11.77
2023-05-19T06:16:34.689Z,11.73
2023-05-19T06:19:01.304Z,11.72
2023-05-19T06:21:27.899Z,11.72
2023-05-19T06:23:54.299Z,11.60
2023-05-19T06:26:20.681Z,11.67
2023-05-19T06:28:47.092Z,11.66
2023-05-19T06:31:13.544Z,11.64
2023-05-19T06:33:40.146Z,11.68
2023-05-19T06:36:06.834Z,11.80
2023-05-19T06:38:33.269Z,11.84
2023-05-19T06:41:00.148Z,12.02
2023-05-19T06:43:31.059Z,12.14
2023-05-19T06:45:57.606Z,11.88
2023-05-19T06:48:24.209Z,11.75
2023-05-19T06:50:50.642Z,11.69
2023-05-19T06:53:17.183Z,11.80
2023-05-19T06:55:57.364Z,11.85
2023-05-19T06:58:26.391Z,12.14
2023-05-19T07:00:55.055Z,12.10
2023-05-19T07:03:21.900Z,12.11
2023-05-19T07:05:48.383Z,12.25
2023-05-19T07:08:14.854Z,12.34
2023-05-19T07:10:41.225Z,12.37
2023-05-19T07:13:08.604Z,12.48
2023-05-19T07:15:38.498Z,12.18
2023-05-19T07:18:05.180Z,12.28
2023-05-19T07:20:33.517Z,12.51
2023-05-19T07:23:04.340Z,12.54
2023-05-19T07:25:31.014Z,12.48
2023-05-19T07:28:01.646Z,12.71
2023-05-19T07:30:28.076Z,12.76
2023-05-19T07:32:56.694Z,13.05
2023-05-19T07:35:23.436Z,13.11
2023-05-19T07:37:49.855Z,13.18
2023-05-19T07:40:16.401Z,13.20
2023-05-19T07:42:42.944Z,13.47
2023-05-19T07:45:09.394Z,13.84
2023-05-19T07:47:36.129Z,13.99
2023-05-19T07:50:02.578Z,14.45
2023-05-19T07:52:28.998Z,14.81
2023-05-19T07:54:55.491Z,15.02
2023-05-19T07:57:22.121Z,14.96
2023-05-19T07:59:49.368Z,14.88
2023-05-19T08:02:21.320Z,15.14
2023-05-19T08:04:48.144Z,15.01
2023-05-19T08:07:14.967Z,15.01
2023-05-19T08:09:44.556Z,14.85
2023-05-19T08:12:11.050Z,14.18
2023-05-19T08:14:39.932Z,14.21
2023-05-19T08:17:06.619Z,14.34
2023-05-19T08:19:33.544Z,14.55
2023-05-19T08:22:00.110Z,14.88
2023-05-19T08:24:28.938Z,14.90
2023-05-19T08:26:58.125Z,15.24
2023-05-19T08:29:24.625Z,15.13
2023-05-19T08:31:53.794Z,14.80
2023-05-19T08:34:20.965Z,14.70
2023-05-19T08:36:48.525Z,14.77
2023-05-19T08:39:17.075Z,14.95
2023-05-19T08:41:43.843Z,14.79
2023-05-19T08:44:12.521Z,14.85
2023-05-19T08:46:39.067Z,14.40
2023-05-19T08:49:05.582Z,14.67
2023-05-19T08:59:42.859Z,15.96
2023-05-19T09:02:11.428Z,16.12
2023-05-19T09:04:49.960Z,15.87
2023-05-19T09:07:18.361Z,15.79
2023-05-19T09:09:45.217Z,15.74
2023-05-19T09:12:14.436Z,15.98
2023-05-19T09:14:43.311Z,15.86
2023-05-19T09:19:56.700Z,16.27
2023-05-19T09:22:23.133Z,16.60
2023-05-19T09:24:49.613Z,16.91
2023-05-19T09:27:16.311Z,17.12
2023-05-19T09:29:42.906Z,17.34
2023-05-19T09:32:09.387Z,17.70
2023-05-19T09:34:36.811Z,17.67
2023-05-19T09:37:03.194Z,17.80
2023-05-19T09:39:29.638Z,17.63
2023-05-19T09:41:56.309Z,17.40
2023-05-19T09:44:22.953Z,17.53
2023-05-19T09:46:49.908Z,18.04
2023-05-19T09:49:16.782Z,18.00
2023-05-19T10:18:44.025Z,16.60
2023-05-19T10:26:34.461Z,17.17
2023-05-19T10:50:39.397Z,16.92
2023-05-19T10:53:06.604Z,17.22
2023-05-19T10:55:35.340Z,17.68
2023-05-19T10:58:01.830Z,17.68
2023-05-19T11:00:28.539Z,17.46
2023-05-19T11:02:54.968Z,17.11
2023-05-19T11:05:22.419Z,16.66
2023-05-19T11:07:49.320Z,16.34
2023-05-19T11:10:15.713Z,16.59
2023-05-19T11:12:42.102Z,16.98
2023-05-19T11:15:08.536Z,17.25
2023-05-19T11:17:35.253Z,17.36
2023-05-19T11:20:02.765Z,17.28
2023-05-19T11:22:29.143Z,17.47
2023-05-19T11:24:55.518Z,17.64
2023-05-19T11:27:22.951Z,17.51
2023-05-19T11:29:52.218Z,17.26
2023-05-19T11:32:20.053Z,17.01
2023-05-19T11:34:46.617Z,16.88
2023-05-19T11:37:13.306Z,17.14
2023-05-19T11:39:40.161Z,17.12
2023-05-19T11:42:06.737Z,17.00
2023-05-19T11:44:33.140Z,16.92
2023-05-19T11:47:03.021Z,16.55
2023-05-19T11:49:33.966Z,16.17
2023-05-19T11:52:00.350Z,16.59
2023-05-19T11:54:27.360Z,16.70
2023-05-19T11:56:55.819Z,16.58
2023-05-19T11:59:23.321Z,16.36
2023-05-19T12:01:50.019Z,16.48
2023-05-19T12:04:16.448Z,16.76
2023-05-19T12:06:43.020Z,16.78
2023-05-19T12:09:11.718Z,17.29
2023-05-19T12:11:38.106Z,17.59
2023-05-19T12:14:04.658Z,17.66
2023-05-19T12:16:33.288Z,17.80
2023-05-19T12:19:00.016Z,17.71
2023-05-19T12:21:34.298Z,17.72
2023-05-19T12:24:00.957Z,17.54
2023-05-19T12:26:27.408Z,17.68
2023-05-19T12:28:54.839Z,18.02
2023-05-19T12:31:21.322Z,18.33
2023-05-19T12:33:48.839Z,18.13
2023-05-19T12:36:15.271Z,17.48
2023-05-19T12:38:43.271Z,17.67
2023-05-19T12:41:10.014Z,17.75
2023-05-19T12:43:36.394Z,17.83
2023-05-19T12:46:03.136Z,18.08
2023-05-19T12:48:29.526Z,18.02
2023-05-19T12:50:56.058Z,17.49
2023-05-19T12:53:26.971Z,17.64
2023-05-19T12:56:01.924Z,17.99
2023-05-19T12:58:28.401Z,17.88
2023-05-19T13:00:55.216Z,17.83
2023-05-19T13:03:22.158Z,17.15
2023-05-19T13:05:48.793Z,17.22
2023-05-19T13:08:17.061Z,17.12
2023-05-19T13:10:43.513Z,17.55
2023-05-19T13:13:10.084Z,17.17
2023-05-19T13:15:37.567Z,17.27
2023-05-19T13:18:04.085Z,17.09
2023-05-19T13:20:31.201Z,17.49
2023-05-19T13:22:57.793Z,17.76
2023-05-19T13:25:24.215Z,18.01
2023-05-19T13:27:50.987Z,17.93
2023-05-19T13:30:17.437Z,18.06
2023-05-19T13:32:45.264Z,17.96
2023-05-19T13:35:11.709Z,17.83
2023-05-19T13:37:41.977Z,16.84
2023-05-19T13:40:08.551Z,17.09
2023-05-19T13:42:35.098Z,17.09
2023-05-19T13:45:03.419Z,17.25
2023-05-19T13:47:31.077Z,17.66
2023-05-19T13:49:57.682Z,17.31
2023-05-19T13:52:28.258Z,16.79
2023-05-19T13:54:56.244Z,17.14
2023-05-19T13:57:22.850Z,17.54
2023-05-19T14:00:02.026Z,17.51
2023-05-19T14:02:31.705Z,17.62
2023-05-19T14:04:58.497Z,17.57
2023-05-19T14:07:25.257Z,16.86
2023-05-19T14:09:51.630Z,17.08
2023-05-19T14:12:25.304Z,17.35
2023-05-19T14:15:02.468Z,17.47
2023-05-19T14:17:31.350Z,17.48
2023-05-19T14:19:57.853Z,17.60
2023-05-19T14:22:25.018Z,16.95
2023-05-19T14:24:51.669Z,17.16
2023-05-19T14:27:18.204Z,17.46
2023-05-19T14:29:45.286Z,17.53
2023-05-19T14:32:11.665Z,17.45
2023-05-19T14:34:38.110Z,17.63
2023-05-19T14:37:04.493Z,17.61
2023-05-19T14:39:30.964Z,17.45
2023-05-19T14:41:57.602Z,17.26
2023-05-19T14:44:24.028Z,17.63
2023-05-19T14:46:50.512Z,17.61
2023-05-19T14:49:17.002Z,17.88
2023-05-19T14:51:43.873Z,17.92
2023-05-19T14:54:10.407Z,18.00
2023-05-19T14:56:41.166Z,17.94
2023-05-19T14:59:07.810Z,18.13
2023-05-19T15:01:34.352Z,18.11
2023-05-19T15:04:01.069Z,17.33
2023-05-19T15:06:30.310Z,17.35
2023-05-19T15:08:56.738Z,17.09
2023-05-19T15:11:23.264Z,17.10
2023-05-19T15:13:49.722Z,16.91
2023-05-19T15:16:18.031Z,16.91
2023-05-19T15:18:46.233Z,16.78
2023-05-19T15:21:12.972Z,16.73
2023-05-19T15:23:39.405Z,16.56
2023-05-19T15:26:06.099Z,16.44
2023-05-19T15:28:32.724Z,16.47
2023-05-19T15:30:59.128Z,16.60
2023-05-19T15:33:25.633Z,16.77
2023-05-19T15:35:52.078Z,16.03
2023-05-19T15:38:18.644Z,16.04
2023-05-19T15:40:45.237Z,16.00
2023-05-19T15:43:11.767Z,16.19
2023-05-19T15:45:38.267Z,16.44
2023-05-19T15:48:05.381Z,16.51
2023-05-19T15:50:31.831Z,16.49
2023-05-19T15:52:59.275Z,16.33
2023-05-19T15:55:25.842Z,15.82
2023-05-19T15:57:52.246Z,15.63
2023-05-19T16:00:18.810Z,15.64
2023-05-19T16:02:45.579Z,15.95
2023-05-19T16:05:12.648Z,15.92
2023-05-19T16:07:39.146Z,16.06
2023-05-19T16:10:06.630Z,16.09
2023-05-19T16:12:33.006Z,15.88
2023-05-19T16:15:00.455Z,15.93
2023-05-19T16:17:27.106Z,15.66
2023-05-19T16:19:53.576Z,15.78
2023-05-19T16:22:20.900Z,15.69
2023-05-19T16:24:48.502Z,15.80
2023-05-19T16:27:14.995Z,15.85
2023-05-19T16:29:41.369Z,15.89
2023-05-19T16:32:07.781Z,15.99
2023-05-19T16:34:34.305Z,15.93
2023-05-19T16:37:00.725Z,16.00
2023-05-19T16:39:27.116Z,15.84
2023-05-19T16:41:53.534Z,16.02
2023-05-19T16:44:19.988Z,16.03
2023-05-19T16:46:47.419Z,15.48
2023-05-19T16:49:13.781Z,15.47
2023-05-19T16:51:40.466Z,15.54
2023-05-19T16:54:06.869Z,15.61
2023-05-19T16:56:33.296Z,15.75
2023-05-19T16:58:59.830Z,15.76
2023-05-19T17:01:26.273Z,15.51
2023-05-19T17:03:53.813Z,15.30
2023-05-19T17:06:20.293Z,15.16
2023-05-19T17:08:46.649Z,15.38
2023-05-19T17:11:13.079Z,15.31
2023-05-19T17:13:39.623Z,15.09
2023-05-19T17:16:06.195Z,15.22
2023-05-19T17:18:32.710Z,15.25
2023-05-19T17:20:59.343Z,15.38
2023-05-19T17:23:26.797Z,15.50
2023-05-19T17:25:54.367Z,15.64
2023-05-19T17:28:20.792Z,15.68
2023-05-19T17:30:49.487Z,15.30
2023-05-19T17:33:15.869Z,14.64
2023-05-19T17:35:42.699Z,14.70
2023-05-19T17:38:09.148Z,14.70
2023-05-19T17:40:36.139Z,14.51
2023-05-19T17:43:02.750Z,14.67
2023-05-19T17:45:30.289Z,14.33
2023-05-19T17:47:57.917Z,14.06
2023-05-19T17:50:27.373Z,14.06
2023-05-19T17:52:53.848Z,14.26
2023-05-19T17:55:20.318Z,14.45
2023-05-19T17:57:46.806Z,14.54
2023-05-19T18:00:13.198Z,14.52
2023-05-19T18:02:40.757Z,14.50
2023-05-19T18:05:07.316Z,14.47
2023-05-19T18:07:36.230Z,14.34
2023-05-19T18:10:03.820Z,14.41
2023-05-19T18:12:31.430Z,14.40
2023-05-19T18:14:59.136Z,14.46
2023-05-19T18:17:28.122Z,14.45
2023-05-19T18:19:55.325Z,14.48
2023-05-19T18:22:22.088Z,14.41
2023-05-19T18:24:48.477Z,14.26
2023-05-19T18:27:15.395Z,14.26
2023-05-19T18:29:42.255Z,14.15
2023-05-19T18:32:08.777Z,14.25
2023-05-19T18:34:35.443Z,14.34
2023-05-19T18:37:01.868Z,14.31
2023-05-19T18:39:29.353Z,14.40
2023-05-19T18:41:55.966Z,14.40
2023-05-19T18:44:22.426Z,14.30
2023-05-19T18:46:48.881Z,14.19
2023-05-19T18:49:15.276Z,14.05
2023-05-19T18:51:41.693Z,13.98
2023-05-19T18:54:08.240Z,13.96
2023-05-19T18:56:39.153Z,14.05
2023-05-19T18:59:06.075Z,14.15
2023-05-19T19:01:33.824Z,14.19
2023-05-19T19:04:00.310Z,14.12
2023-05-19T19:06:27.042Z,14.22
2023-05-19T19:08:53.834Z,14.22
2023-05-19T19:11:20.304Z,14.20
2023-05-19T19:13:47.050Z,14.21
2023-05-19T19:16:13.437Z,14.22
2023-05-19T19:18:40.134Z,14.26
2023-05-19T19:21:07.059Z,14.20
2023-05-19T19:23:33.681Z,14.26
2023-05-19T19:26:02.559Z,14.23
2023-05-19T19:28:29.452Z,14.22
2023-05-19T19:30:56.016Z,14.05
2023-05-19T19:33:24.354Z,14.06
2023-05-19T19:35:55.191Z,13.92
2023-05-19T19:38:22.248Z,13.82
2023-05-19T19:40:49.330Z,13.82
2023-05-19T19:43:16.585Z,13.73
2023-05-19T19:45:45.326Z,13.64
2023-05-19T19:48:12.591Z,13.69
2023-05-19T19:50:39.115Z,13.54
2023-05-19T21:16:43.392Z,13.21
2023-05-19T21:19:17.153Z,13.31
2023-05-19T21:24:35.934Z,13.47
2023-05-19T21:32:55.500Z,13.28
